sensor_id;sensor_type;location;lat;lon;timestamp;P1;durP1;ratioP1;P2;durP2;ratioP2
81320;SDS011;70785;52.570;5.638;2023-07-13T00:01:13;4.05;;;0.65;;
81320;SDS011;70785;52.570;5.638;2023-07-13T00:03:41;5.45;;;1.20;;
81320;SDS011;70785;52.570;5.638;2023-07-13T00:06:08;5.43;;;1.52;;
81320;SDS011;70785;52.570;5.638;2023-07-13T00:08:34;8.23;;;1.75;;
81320;SDS011;70785;52.570;5.638;2023-07-13T00:11:01;4.07;;;1.10;;
81320;SDS011;70785;52.570;5.638;2023-07-13T00:13:28;5.60;;;1.70;;
81320;SDS011;70785;52.570;5.638;2023-07-13T00:15:57;5.00;;;1.25;;
81320;SDS011;70785;52.570;5.638;2023-07-13T00:18:24;5.53;;;1.55;;
81320;SDS011;70785;52.570;5.638;2023-07-13T00:20:50;7.82;;;2.17;;
81320;SDS011;70785;52.570;5.638;2023-07-13T00:23:16;6.85;;;1.50;;
81320;SDS011;70785;52.570;5.638;2023-07-13T00:25:42;8.10;;;2.03;;
81320;SDS011;70785;52.570;5.638;2023-07-13T00:28:08;5.93;;;2.08;;
81320;SDS011;70785;52.570;5.638;2023-07-13T00:30:34;8.10;;;1.80;;
81320;SDS011;70785;52.570;5.638;2023-07-13T00:33:01;4.97;;;1.30;;
81320;SDS011;70785;52.570;5.638;2023-07-13T00:35:27;11.93;;;2.08;;
81320;SDS011;70785;52.570;5.638;2023-07-13T00:37:57;8.82;;;2.10;;
81320;SDS011;70785;52.570;5.638;2023-07-13T00:40:24;8.35;;;2.90;;
81320;SDS011;70785;52.570;5.638;2023-07-13T00:42:51;8.40;;;1.70;;
81320;SDS011;70785;52.570;5.638;2023-07-13T00:47:44;9.45;;;2.03;;
81320;SDS011;70785;52.570;5.638;2023-07-13T00:50:11;6.50;;;2.20;;
81320;SDS011;70785;52.570;5.638;2023-07-13T00:52:40;9.15;;;2.53;;
81320;SDS011;70785;52.570;5.638;2023-07-13T00:55:10;8.00;;;1.67;;
81320;SDS011;70785;52.570;5.638;2023-07-13T00:57:38;13.65;;;2.97;;
81320;SDS011;70785;52.570;5.638;2023-07-13T01:00:07;9.98;;;2.35;;
81320;SDS011;70785;52.570;5.638;2023-07-13T01:02:35;10.73;;;2.90;;
81320;SDS011;70785;52.570;5.638;2023-07-13T01:05:11;10.23;;;2.58;;
81320;SDS011;70785;52.570;5.638;2023-07-13T01:07:40;11.35;;;3.25;;
81320;SDS011;70785;52.570;5.638;2023-07-13T01:10:07;9.23;;;2.05;;
81320;SDS011;70785;52.570;5.638;2023-07-13T01:12:34;9.65;;;2.10;;
81320;SDS011;70785;52.570;5.638;2023-07-13T01:15:01;7.68;;;2.60;;
81320;SDS011;70785;52.570;5.638;2023-07-13T01:17:28;11.00;;;3.05;;
81320;SDS011;70785;52.570;5.638;2023-07-13T01:19:54;11.48;;;2.38;;
81320;SDS011;70785;52.570;5.638;2023-07-13T01:22:22;7.82;;;2.22;;
81320;SDS011;70785;52.570;5.638;2023-07-13T01:24:53;10.32;;;2.50;;
81320;SDS011;70785;52.570;5.638;2023-07-13T01:27:23;6.90;;;2.47;;
81320;SDS011;70785;52.570;5.638;2023-07-13T01:29:51;9.45;;;2.92;;
81320;SDS011;70785;52.570;5.638;2023-07-13T01:32:19;5.57;;;2.22;;
81320;SDS011;70785;52.570;5.638;2023-07-13T01:34:50;9.77;;;2.60;;
81320;SDS011;70785;52.570;5.638;2023-07-13T01:37:19;14.02;;;3.10;;
81320;SDS011;70785;52.570;5.638;2023-07-13T01:39:46;10.88;;;2.55;;
81320;SDS011;70785;52.570;5.638;2023-07-13T01:42:12;7.05;;;2.13;;
81320;SDS011;70785;52.570;5.638;2023-07-13T01:44:40;12.75;;;2.80;;
81320;SDS011;70785;52.570;5.638;2023-07-13T01:47:07;8.88;;;3.00;;
81320;SDS011;70785;52.570;5.638;2023-07-13T01:49:33;10.60;;;2.35;;
81320;SDS011;70785;52.570;5.638;2023-07-13T01:51:59;17.50;;;3.20;;
81320;SDS011;70785;52.570;5.638;2023-07-13T01:54:25;15.13;;;2.72;;
81320;SDS011;70785;52.570;5.638;2023-07-13T01:56:51;8.40;;;2.65;;
81320;SDS011;70785;52.570;5.638;2023-07-13T01:59:17;11.10;;;2.70;;
81320;SDS011;70785;52.570;5.638;2023-07-13T02:01:44;12.07;;;2.50;;
81320;SDS011;70785;52.570;5.638;2023-07-13T02:04:10;12.20;;;2.80;;
81320;SDS011;70785;52.570;5.638;2023-07-13T02:06:36;14.50;;;2.95;;
81320;SDS011;70785;52.570;5.638;2023-07-13T02:09:02;9.07;;;3.10;;
81320;SDS011;70785;52.570;5.638;2023-07-13T02:11:28;15.15;;;2.53;;
81320;SDS011;70785;52.570;5.638;2023-07-13T02:14:01;11.00;;;2.63;;
81320;SDS011;70785;52.570;5.638;2023-07-13T02:16:29;12.02;;;3.78;;
81320;SDS011;70785;52.570;5.638;2023-07-13T02:18:55;6.50;;;2.35;;
81320;SDS011;70785;52.570;5.638;2023-07-13T02:21:22;12.88;;;2.80;;
81320;SDS011;70785;52.570;5.638;2023-07-13T02:23:51;12.75;;;3.60;;
81320;SDS011;70785;52.570;5.638;2023-07-13T02:26:18;16.45;;;3.15;;
81320;SDS011;70785;52.570;5.638;2023-07-13T02:28:44;13.30;;;3.45;;
81320;SDS011;70785;52.570;5.638;2023-07-13T02:31:12;13.40;;;2.78;;
81320;SDS011;70785;52.570;5.638;2023-07-13T02:33:40;12.02;;;2.95;;
81320;SDS011;70785;52.570;5.638;2023-07-13T02:36:06;6.15;;;2.10;;
81320;SDS011;70785;52.570;5.638;2023-07-13T02:38:33;10.48;;;2.47;;
81320;SDS011;70785;52.570;5.638;2023-07-13T02:41:02;10.90;;;3.22;;
81320;SDS011;70785;52.570;5.638;2023-07-13T02:43:32;7.05;;;2.55;;
81320;SDS011;70785;52.570;5.638;2023-07-13T02:46:00;9.10;;;3.28;;
81320;SDS011;70785;52.570;5.638;2023-07-13T02:48:35;9.13;;;2.40;;
81320;SDS011;70785;52.570;5.638;2023-07-13T02:51:03;11.13;;;2.78;;
81320;SDS011;70785;52.570;5.638;2023-07-13T02:53:29;11.15;;;2.97;;
81320;SDS011;70785;52.570;5.638;2023-07-13T02:55:55;12.43;;;2.78;;
81320;SDS011;70785;52.570;5.638;2023-07-13T02:58:22;9.80;;;3.72;;
81320;SDS011;70785;52.570;5.638;2023-07-13T03:00:48;11.98;;;3.63;;
81320;SDS011;70785;52.570;5.638;2023-07-13T03:03:16;7.43;;;2.70;;
81320;SDS011;70785;52.570;5.638;2023-07-13T03:05:43;10.13;;;2.50;;
81320;SDS011;70785;52.570;5.638;2023-07-13T03:08:11;6.57;;;2.20;;
81320;SDS011;70785;52.570;5.638;2023-07-13T03:10:39;8.85;;;2.90;;
81320;SDS011;70785;52.570;5.638;2023-07-13T03:13:08;11.02;;;3.17;;
81320;SDS011;70785;52.570;5.638;2023-07-13T03:15:34;12.30;;;2.50;;
81320;SDS011;70785;52.570;5.638;2023-07-13T03:18:01;9.18;;;2.95;;
81320;SDS011;70785;52.570;5.638;2023-07-13T03:20:28;9.02;;;2.00;;
81320;SDS011;70785;52.570;5.638;2023-07-13T03:22:54;11.82;;;2.33;;
81320;SDS011;70785;52.570;5.638;2023-07-13T03:25:20;13.73;;;3.08;;
81320;SDS011;70785;52.570;5.638;2023-07-13T03:27:48;12.20;;;2.70;;
81320;SDS011;70785;52.570;5.638;2023-07-13T03:30:14;9.38;;;2.28;;
81320;SDS011;70785;52.570;5.638;2023-07-13T03:32:42;10.13;;;2.72;;
81320;SDS011;70785;52.570;5.638;2023-07-13T03:35:08;11.30;;;3.40;;
81320;SDS011;70785;52.570;5.638;2023-07-13T03:37:36;10.90;;;2.45;;
81320;SDS011;70785;52.570;5.638;2023-07-13T03:40:10;8.93;;;2.22;;
81320;SDS011;70785;52.570;5.638;2023-07-13T03:42:37;8.55;;;2.55;;
81320;SDS011;70785;52.570;5.638;2023-07-13T03:45:04;12.10;;;2.92;;
81320;SDS011;70785;52.570;5.638;2023-07-13T03:47:32;9.30;;;2.67;;
81320;SDS011;70785;52.570;5.638;2023-07-13T03:49:59;11.35;;;2.40;;
81320;SDS011;70785;52.570;5.638;2023-07-13T03:52:25;9.70;;;2.67;;
81320;SDS011;70785;52.570;5.638;2023-07-13T03:54:51;7.40;;;2.60;;
81320;SDS011;70785;52.570;5.638;2023-07-13T03:57:18;6.45;;;2.65;;
81320;SDS011;70785;52.570;5.638;2023-07-13T03:59:44;6.90;;;1.83;;
81320;SDS011;70785;52.570;5.638;2023-07-13T04:02:10;8.35;;;1.90;;
81320;SDS011;70785;52.570;5.638;2023-07-13T04:04:37;10.30;;;2.95;;
81320;SDS011;70785;52.570;5.638;2023-07-13T04:07:06;8.15;;;2.75;;
81320;SDS011;70785;52.570;5.638;2023-07-13T04:09:34;7.72;;;2.00;;
81320;SDS011;70785;52.570;5.638;2023-07-13T04:12:00;12.57;;;3.08;;
81320;SDS011;70785;52.570;5.638;2023-07-13T04:14:27;11.00;;;2.55;;
81320;SDS011;70785;52.570;5.638;2023-07-13T04:16:53;7.05;;;2.58;;
81320;SDS011;70785;52.570;5.638;2023-07-13T04:19:20;11.10;;;2.33;;
81320;SDS011;70785;52.570;5.638;2023-07-13T04:21:46;9.45;;;2.50;;
81320;SDS011;70785;52.570;5.638;2023-07-13T04:24:13;7.13;;;1.67;;
81320;SDS011;70785;52.570;5.638;2023-07-13T04:26:39;12.77;;;2.60;;
81320;SDS011;70785;52.570;5.638;2023-07-13T04:29:06;8.80;;;3.28;;
81320;SDS011;70785;52.570;5.638;2023-07-13T04:31:32;8.48;;;2.50;;
81320;SDS011;70785;52.570;5.638;2023-07-13T04:33:59;8.80;;;3.03;;
81320;SDS011;70785;52.570;5.638;2023-07-13T04:36:25;9.35;;;2.40;;
81320;SDS011;70785;52.570;5.638;2023-07-13T04:38:54;6.05;;;2.47;;
81320;SDS011;70785;52.570;5.638;2023-07-13T04:41:20;7.35;;;2.28;;
81320;SDS011;70785;52.570;5.638;2023-07-13T04:43:47;6.78;;;1.95;;
81320;SDS011;70785;52.570;5.638;2023-07-13T04:46:15;5.13;;;1.70;;
81320;SDS011;70785;52.570;5.638;2023-07-13T04:48:45;9.00;;;2.38;;
81320;SDS011;70785;52.570;5.638;2023-07-13T04:51:12;7.03;;;2.25;;
81320;SDS011;70785;52.570;5.638;2023-07-13T04:53:38;13.35;;;3.15;;
81320;SDS011;70785;52.570;5.638;2023-07-13T04:56:04;11.15;;;1.80;;
81320;SDS011;70785;52.570;5.638;2023-07-13T04:58:31;9.27;;;2.03;;
81320;SDS011;70785;52.570;5.638;2023-07-13T05:01:01;12.27;;;2.78;;
81320;SDS011;70785;52.570;5.638;2023-07-13T05:03:31;9.15;;;2.72;;
81320;SDS011;70785;52.570;5.638;2023-07-13T05:05:57;9.05;;;2.13;;
81320;SDS011;70785;52.570;5.638;2023-07-13T05:08:25;9.13;;;3.00;;
81320;SDS011;70785;52.570;5.638;2023-07-13T05:10:52;13.10;;;2.17;;
81320;SDS011;70785;52.570;5.638;2023-07-13T05:13:18;7.03;;;2.65;;
81320;SDS011;70785;52.570;5.638;2023-07-13T05:15:44;8.38;;;2.28;;
81320;SDS011;70785;52.570;5.638;2023-07-13T05:18:11;7.80;;;3.28;;
81320;SDS011;70785;52.570;5.638;2023-07-13T05:20:37;8.77;;;2.53;;
81320;SDS011;70785;52.570;5.638;2023-07-13T05:23:03;8.35;;;1.58;;
81320;SDS011;70785;52.570;5.638;2023-07-13T05:25:29;8.95;;;2.60;;
81320;SDS011;70785;52.570;5.638;2023-07-13T05:27:55;8.38;;;3.10;;
81320;SDS011;70785;52.570;5.638;2023-07-13T05:30:21;7.10;;;2.53;;
81320;SDS011;70785;52.570;5.638;2023-07-13T05:32:47;8.27;;;1.95;;
81320;SDS011;70785;52.570;5.638;2023-07-13T05:35:13;5.68;;;2.03;;
81320;SDS011;70785;52.570;5.638;2023-07-13T05:37:39;6.00;;;1.88;;
81320;SDS011;70785;52.570;5.638;2023-07-13T05:40:06;7.47;;;2.15;;
81320;SDS011;70785;52.570;5.638;2023-07-13T05:42:32;8.30;;;2.22;;
81320;SDS011;70785;52.570;5.638;2023-07-13T05:44:58;7.65;;;2.17;;
81320;SDS011;70785;52.570;5.638;2023-07-13T05:47:24;3.63;;;2.00;;
81320;SDS011;70785;52.570;5.638;2023-07-13T05:49:50;6.85;;;2.00;;
81320;SDS011;70785;52.570;5.638;2023-07-13T05:52:17;9.45;;;2.20;;
81320;SDS011;70785;52.570;5.638;2023-07-13T05:54:43;11.05;;;1.60;;
81320;SDS011;70785;52.570;5.638;2023-07-13T05:57:09;6.88;;;2.05;;
81320;SDS011;70785;52.570;5.638;2023-07-13T05:59:35;6.05;;;2.17;;
81320;SDS011;70785;52.570;5.638;2023-07-13T06:02:02;6.50;;;2.00;;
81320;SDS011;70785;52.570;5.638;2023-07-13T06:04:28;7.63;;;2.13;;
81320;SDS011;70785;52.570;5.638;2023-07-13T06:06:54;6.60;;;2.80;;
81320;SDS011;70785;52.570;5.638;2023-07-13T06:09:21;9.10;;;2.35;;
81320;SDS011;70785;52.570;5.638;2023-07-13T06:11:47;5.50;;;1.98;;
81320;SDS011;70785;52.570;5.638;2023-07-13T06:14:13;7.78;;;2.03;;
81320;SDS011;70785;52.570;5.638;2023-07-13T06:16:39;9.35;;;2.40;;
81320;SDS011;70785;52.570;5.638;2023-07-13T06:19:05;9.73;;;2.55;;
81320;SDS011;70785;52.570;5.638;2023-07-13T06:21:32;10.55;;;2.85;;
81320;SDS011;70785;52.570;5.638;2023-07-13T06:23:58;7.05;;;1.88;;
81320;SDS011;70785;52.570;5.638;2023-07-13T06:26:24;15.15;;;2.75;;
81320;SDS011;70785;52.570;5.638;2023-07-13T06:28:50;11.43;;;2.47;;
81320;SDS011;70785;52.570;5.638;2023-07-13T06:31:16;11.82;;;3.13;;
81320;SDS011;70785;52.570;5.638;2023-07-13T06:33:43;8.32;;;2.40;;
81320;SDS011;70785;52.570;5.638;2023-07-13T06:36:09;7.90;;;2.80;;
81320;SDS011;70785;52.570;5.638;2023-07-13T06:38:36;6.55;;;2.30;;
81320;SDS011;70785;52.570;5.638;2023-07-13T06:41:03;9.10;;;2.13;;
81320;SDS011;70785;52.570;5.638;2023-07-13T06:43:30;11.55;;;2.92;;
81320;SDS011;70785;52.570;5.638;2023-07-13T06:45:57;8.63;;;2.92;;
81320;SDS011;70785;52.570;5.638;2023-07-13T06:48:23;12.93;;;2.72;;
81320;SDS011;70785;52.570;5.638;2023-07-13T06:50:50;10.43;;;2.72;;
81320;SDS011;70785;52.570;5.638;2023-07-13T06:53:17;8.27;;;3.00;;
81320;SDS011;70785;52.570;5.638;2023-07-13T06:55:45;7.97;;;3.10;;
81320;SDS011;70785;52.570;5.638;2023-07-13T06:58:11;7.55;;;2.85;;
81320;SDS011;70785;52.570;5.638;2023-07-13T07:00:38;6.70;;;2.45;;
81320;SDS011;70785;52.570;5.638;2023-07-13T07:03:05;11.63;;;2.55;;
81320;SDS011;70785;52.570;5.638;2023-07-13T07:05:32;7.35;;;2.58;;
81320;SDS011;70785;52.570;5.638;2023-07-13T07:07:58;14.13;;;3.50;;
81320;SDS011;70785;52.570;5.638;2023-07-13T07:10:25;9.38;;;2.50;;
81320;SDS011;70785;52.570;5.638;2023-07-13T07:12:51;12.50;;;3.65;;
81320;SDS011;70785;52.570;5.638;2023-07-13T07:15:18;10.13;;;4.55;;
81320;SDS011;70785;52.570;5.638;2023-07-13T07:17:44;10.40;;;2.83;;
81320;SDS011;70785;52.570;5.638;2023-07-13T07:20:10;9.85;;;2.55;;
81320;SDS011;70785;52.570;5.638;2023-07-13T07:22:37;7.28;;;1.98;;
81320;SDS011;70785;52.570;5.638;2023-07-13T07:25:03;7.80;;;2.22;;
81320;SDS011;70785;52.570;5.638;2023-07-13T07:27:29;10.82;;;3.28;;
81320;SDS011;70785;52.570;5.638;2023-07-13T07:29:55;8.63;;;2.38;;
81320;SDS011;70785;52.570;5.638;2023-07-13T07:32:23;8.88;;;2.97;;
81320;SDS011;70785;52.570;5.638;2023-07-13T07:34:49;6.70;;;2.08;;
81320;SDS011;70785;52.570;5.638;2023-07-13T07:37:15;9.40;;;3.63;;
81320;SDS011;70785;52.570;5.638;2023-07-13T07:39:44;6.93;;;1.63;;
81320;SDS011;70785;52.570;5.638;2023-07-13T07:42:10;4.68;;;2.03;;
81320;SDS011;70785;52.570;5.638;2023-07-13T07:44:40;9.35;;;3.15;;
81320;SDS011;70785;52.570;5.638;2023-07-13T07:47:07;5.57;;;1.65;;
81320;SDS011;70785;52.570;5.638;2023-07-13T07:49:34;5.32;;;2.10;;
81320;SDS011;70785;52.570;5.638;2023-07-13T07:52:01;8.65;;;1.90;;
81320;SDS011;70785;52.570;5.638;2023-07-13T07:54:27;6.18;;;2.00;;
81320;SDS011;70785;52.570;5.638;2023-07-13T07:56:53;7.97;;;2.42;;
81320;SDS011;70785;52.570;5.638;2023-07-13T07:59:19;5.00;;;2.08;;
81320;SDS011;70785;52.570;5.638;2023-07-13T08:01:46;5.90;;;2.10;;
81320;SDS011;70785;52.570;5.638;2023-07-13T08:04:13;7.60;;;2.15;;
81320;SDS011;70785;52.570;5.638;2023-07-13T08:06:39;3.83;;;1.58;;
81320;SDS011;70785;52.570;5.638;2023-07-13T08:09:05;3.60;;;2.03;;
81320;SDS011;70785;52.570;5.638;2023-07-13T08:11:31;5.05;;;2.05;;
81320;SDS011;70785;52.570;5.638;2023-07-13T08:13:58;3.70;;;2.00;;
81320;SDS011;70785;52.570;5.638;2023-07-13T08:16:24;3.20;;;1.75;;
81320;SDS011;70785;52.570;5.638;2023-07-13T08:18:51;5.65;;;1.75;;
81320;SDS011;70785;52.570;5.638;2023-07-13T08:21:17;3.40;;;0.80;;
81320;SDS011;70785;52.570;5.638;2023-07-13T08:23:45;2.08;;;1.42;;
81320;SDS011;70785;52.570;5.638;2023-07-13T08:26:12;3.75;;;1.10;;
81320;SDS011;70785;52.570;5.638;2023-07-13T08:28:38;1.65;;;1.30;;
81320;SDS011;70785;52.570;5.638;2023-07-13T08:31:04;2.15;;;1.30;;
81320;SDS011;70785;52.570;5.638;2023-07-13T08:33:35;3.30;;;1.88;;
81320;SDS011;70785;52.570;5.638;2023-07-13T08:36:02;5.10;;;1.40;;
81320;SDS011;70785;52.570;5.638;2023-07-13T08:38:28;3.28;;;1.52;;
81320;SDS011;70785;52.570;5.638;2023-07-13T08:40:55;5.97;;;1.85;;
81320;SDS011;70785;52.570;5.638;2023-07-13T08:43:29;5.03;;;1.30;;
81320;SDS011;70785;52.570;5.638;2023-07-13T08:48:28;3.97;;;2.55;;
81320;SDS011;70785;52.570;5.638;2023-07-13T08:53:50;4.97;;;2.40;;
81320;SDS011;70785;52.570;5.638;2023-07-13T08:56:24;2.80;;;1.73;;
81320;SDS011;70785;52.570;5.638;2023-07-13T08:58:55;4.15;;;1.90;;
81320;SDS011;70785;52.570;5.638;2023-07-13T09:04:20;3.70;;;1.73;;
81320;SDS011;70785;52.570;5.638;2023-07-13T09:06:58;4.65;;;2.13;;
81320;SDS011;70785;52.570;5.638;2023-07-13T09:09:59;3.63;;;2.38;;
81320;SDS011;70785;52.570;5.638;2023-07-13T09:12:35;3.47;;;2.33;;
81320;SDS011;70785;52.570;5.638;2023-07-13T09:15:23;4.30;;;2.35;;
81320;SDS011;70785;52.570;5.638;2023-07-13T09:17:57;3.10;;;2.05;;
81320;SDS011;70785;52.570;5.638;2023-07-13T09:20:40;6.50;;;1.70;;
81320;SDS011;70785;52.570;5.638;2023-07-13T09:23:29;3.88;;;1.73;;
81320;SDS011;70785;52.570;5.638;2023-07-13T09:26:17;2.95;;;0.90;;
81320;SDS011;70785;52.570;5.638;2023-07-13T09:28:49;5.93;;;1.33;;
81320;SDS011;70785;52.570;5.638;2023-07-13T09:31:33;2.72;;;1.80;;
81320;SDS011;70785;52.570;5.638;2023-07-13T09:34:08;3.22;;;1.70;;
81320;SDS011;70785;52.570;5.638;2023-07-13T09:36:36;3.92;;;1.23;;
81320;SDS011;70785;52.570;5.638;2023-07-13T09:41:39;4.97;;;1.80;;
81320;SDS011;70785;52.570;5.638;2023-07-13T09:44:31;3.60;;;1.40;;
81320;SDS011;70785;52.570;5.638;2023-07-13T09:47:01;7.18;;;1.85;;
81320;SDS011;70785;52.570;5.638;2023-07-13T09:49:28;3.85;;;2.38;;
81320;SDS011;70785;52.570;5.638;2023-07-13T09:52:00;6.03;;;3.15;;
81320;SDS011;70785;52.570;5.638;2023-07-13T09:54:33;6.00;;;2.33;;
81320;SDS011;70785;52.570;5.638;2023-07-13T09:57:01;3.45;;;2.70;;
81320;SDS011;70785;52.570;5.638;2023-07-13T09:59:33;4.78;;;2.15;;
81320;SDS011;70785;52.570;5.638;2023-07-13T10:04:58;3.83;;;1.80;;
81320;SDS011;70785;52.570;5.638;2023-07-13T10:07:26;3.08;;;2.05;;
81320;SDS011;70785;52.570;5.638;2023-07-13T10:09:55;5.43;;;2.30;;
81320;SDS011;70785;52.570;5.638;2023-07-13T10:12:26;9.30;;;2.72;;
81320;SDS011;70785;52.570;5.638;2023-07-13T10:14:55;4.38;;;2.58;;
81320;SDS011;70785;52.570;5.638;2023-07-13T10:17:29;4.18;;;1.98;;
81320;SDS011;70785;52.570;5.638;2023-07-13T10:20:01;6.40;;;1.52;;
81320;SDS011;70785;52.570;5.638;2023-07-13T10:22:37;6.63;;;1.90;;
81320;SDS011;70785;52.570;5.638;2023-07-13T10:25:25;4.38;;;1.92;;
81320;SDS011;70785;52.570;5.638;2023-07-13T10:27:53;5.00;;;1.70;;
81320;SDS011;70785;52.570;5.638;2023-07-13T10:30:28;3.42;;;1.92;;
81320;SDS011;70785;52.570;5.638;2023-07-13T10:32:58;3.92;;;1.45;;
81320;SDS011;70785;52.570;5.638;2023-07-13T10:35:27;5.65;;;1.80;;
81320;SDS011;70785;52.570;5.638;2023-07-13T10:38:02;3.88;;;1.95;;
81320;SDS011;70785;52.570;5.638;2023-07-13T10:40:36;3.28;;;1.70;;
81320;SDS011;70785;52.570;5.638;2023-07-13T10:43:06;3.70;;;1.40;;
81320;SDS011;70785;52.570;5.638;2023-07-13T10:45:40;5.78;;;1.60;;
81320;SDS011;70785;52.570;5.638;2023-07-13T10:48:07;6.43;;;1.60;;
81320;SDS011;70785;52.570;5.638;2023-07-13T10:50:38;7.13;;;2.60;;
81320;SDS011;70785;52.570;5.638;2023-07-13T10:58:38;3.65;;;1.70;;
81320;SDS011;70785;52.570;5.638;2023-07-13T11:03:33;3.83;;;2.10;;
81320;SDS011;70785;52.570;5.638;2023-07-13T11:06:06;6.10;;;1.65;;
81320;SDS011;70785;52.570;5.638;2023-07-13T11:08:37;5.45;;;1.83;;
81320;SDS011;70785;52.570;5.638;2023-07-13T11:18:48;5.75;;;2.20;;
81320;SDS011;70785;52.570;5.638;2023-07-13T11:21:34;3.05;;;1.95;;
81320;SDS011;70785;52.570;5.638;2023-07-13T11:24:04;4.95;;;1.38;;
81320;SDS011;70785;52.570;5.638;2023-07-13T11:31:41;3.55;;;2.25;;
81320;SDS011;70785;52.570;5.638;2023-07-13T11:34:13;6.95;;;1.88;;
81320;SDS011;70785;52.570;5.638;2023-07-13T11:36:42;4.85;;;1.60;;
81320;SDS011;70785;52.570;5.638;2023-07-13T11:39:17;2.55;;;1.58;;
81320;SDS011;70785;52.570;5.638;2023-07-13T11:41:49;8.55;;;1.55;;
81320;SDS011;70785;52.570;5.638;2023-07-13T11:44:21;6.00;;;1.67;;
81320;SDS011;70785;52.570;5.638;2023-07-13T11:46:53;5.47;;;2.00;;
81320;SDS011;70785;52.570;5.638;2023-07-13T11:49:21;3.05;;;1.20;;
81320;SDS011;70785;52.570;5.638;2023-07-13T11:51:52;3.67;;;1.55;;
81320;SDS011;70785;52.570;5.638;2023-07-13T11:54:26;4.35;;;1.95;;
81320;SDS011;70785;52.570;5.638;2023-07-13T11:57:07;15.70;;;2.40;;
81320;SDS011;70785;52.570;5.638;2023-07-13T11:59:48;4.70;;;1.15;;
81320;SDS011;70785;52.570;5.638;2023-07-13T12:02:18;2.60;;;1.70;;
81320;SDS011;70785;52.570;5.638;2023-07-13T12:04:54;5.70;;;2.10;;
81320;SDS011;70785;52.570;5.638;2023-07-13T12:07:22;5.88;;;2.10;;
81320;SDS011;70785;52.570;5.638;2023-07-13T12:09:48;6.22;;;1.80;;
81320;SDS011;70785;52.570;5.638;2023-07-13T12:12:21;4.93;;;1.50;;
81320;SDS011;70785;52.570;5.638;2023-07-13T12:14:51;3.58;;;1.25;;
81320;SDS011;70785;52.570;5.638;2023-07-13T12:17:19;2.78;;;1.50;;
81320;SDS011;70785;52.570;5.638;2023-07-13T12:19:47;3.25;;;1.30;;
81320;SDS011;70785;52.570;5.638;2023-07-13T12:22:18;6.35;;;1.10;;
81320;SDS011;70785;52.570;5.638;2023-07-13T12:24:46;2.13;;;1.05;;
81320;SDS011;70785;52.570;5.638;2023-07-13T12:29:52;6.32;;;1.10;;
81320;SDS011;70785;52.570;5.638;2023-07-13T12:32:19;2.70;;;1.52;;
81320;SDS011;70785;52.570;5.638;2023-07-13T12:34:52;3.80;;;1.85;;
81320;SDS011;70785;52.570;5.638;2023-07-13T12:37:20;2.97;;;1.05;;
81320;SDS011;70785;52.570;5.638;2023-07-13T12:39:46;3.53;;;1.33;;
81320;SDS011;70785;52.570;5.638;2023-07-13T12:45:01;3.80;;;1.23;;
81320;SDS011;70785;52.570;5.638;2023-07-13T12:47:42;3.40;;;1.80;;
81320;SDS011;70785;52.570;5.638;2023-07-13T12:50:14;4.65;;;1.15;;
81320;SDS011;70785;52.570;5.638;2023-07-13T12:52:42;4.45;;;1.17;;
81320;SDS011;70785;52.570;5.638;2023-07-13T12:55:14;4.32;;;1.50;;
81320;SDS011;70785;52.570;5.638;2023-07-13T12:57:49;3.08;;;1.27;;
81320;SDS011;70785;52.570;5.638;2023-07-13T13:00:29;3.30;;;1.77;;
81320;SDS011;70785;52.570;5.638;2023-07-13T13:03:05;4.40;;;0.95;;
81320;SDS011;70785;52.570;5.638;2023-07-13T13:05:45;3.20;;;0.98;;
81320;SDS011;70785;52.570;5.638;2023-07-13T13:08:12;5.80;;;1.42;;
81320;SDS011;70785;52.570;5.638;2023-07-13T13:10:38;3.03;;;1.13;;
81320;SDS011;70785;52.570;5.638;2023-07-13T13:13:04;4.00;;;1.30;;
81320;SDS011;70785;52.570;5.638;2023-07-13T13:15:30;3.17;;;1.20;;
81320;SDS011;70785;52.570;5.638;2023-07-13T13:17:58;5.55;;;1.77;;
81320;SDS011;70785;52.570;5.638;2023-07-13T13:20:24;4.18;;;1.38;;
81320;SDS011;70785;52.570;5.638;2023-07-13T13:22:51;7.82;;;2.20;;
81320;SDS011;70785;52.570;5.638;2023-07-13T13:25:18;2.53;;;0.98;;
81320;SDS011;70785;52.570;5.638;2023-07-13T13:27:44;2.40;;;1.50;;
81320;SDS011;70785;52.570;5.638;2023-07-13T13:30:11;4.55;;;1.23;;
81320;SDS011;70785;52.570;5.638;2023-07-13T13:32:39;2.17;;;1.20;;
81320;SDS011;70785;52.570;5.638;2023-07-13T13:35:12;2.38;;;1.55;;
81320;SDS011;70785;52.570;5.638;2023-07-13T13:37:41;3.42;;;1.85;;
81320;SDS011;70785;52.570;5.638;2023-07-13T13:40:14;2.20;;;1.10;;
81320;SDS011;70785;52.570;5.638;2023-07-13T13:42:42;6.65;;;2.03;;
81320;SDS011;70785;52.570;5.638;2023-07-13T13:45:09;4.93;;;1.20;;
81320;SDS011;70785;52.570;5.638;2023-07-13T13:47:36;2.17;;;1.50;;
81320;SDS011;70785;52.570;5.638;2023-07-13T13:50:10;4.88;;;1.40;;
81320;SDS011;70785;52.570;5.638;2023-07-13T13:52:37;3.30;;;1.88;;
81320;SDS011;70785;52.570;5.638;2023-07-13T13:55:10;3.33;;;1.23;;
81320;SDS011;70785;52.570;5.638;2023-07-13T13:57:37;3.20;;;1.85;;
81320;SDS011;70785;52.570;5.638;2023-07-13T14:00:04;4.40;;;2.00;;
81320;SDS011;70785;52.570;5.638;2023-07-13T14:02:31;6.10;;;1.83;;
81320;SDS011;70785;52.570;5.638;2023-07-13T14:04:58;3.50;;;1.50;;
81320;SDS011;70785;52.570;5.638;2023-07-13T14:07:27;4.28;;;2.00;;
81320;SDS011;70785;52.570;5.638;2023-07-13T14:09:55;6.15;;;1.80;;
81320;SDS011;70785;52.570;5.638;2023-07-13T14:12:23;4.28;;;2.20;;
81320;SDS011;70785;52.570;5.638;2023-07-13T14:14:54;6.30;;;1.83;;
81320;SDS011;70785;52.570;5.638;2023-07-13T14:22:26;5.43;;;1.83;;
81320;SDS011;70785;52.570;5.638;2023-07-13T14:24:53;3.15;;;2.25;;
81320;SDS011;70785;52.570;5.638;2023-07-13T14:27:19;4.85;;;2.20;;
81320;SDS011;70785;52.570;5.638;2023-07-13T14:29:46;6.05;;;1.98;;
81320;SDS011;70785;52.570;5.638;2023-07-13T14:32:12;4.55;;;2.63;;
81320;SDS011;70785;52.570;5.638;2023-07-13T14:34:38;4.40;;;1.83;;
81320;SDS011;70785;52.570;5.638;2023-07-13T14:37:05;4.70;;;2.83;;
81320;SDS011;70785;52.570;5.638;2023-07-13T14:39:37;5.43;;;2.15;;
81320;SDS011;70785;52.570;5.638;2023-07-13T14:42:03;4.60;;;2.03;;
81320;SDS011;70785;52.570;5.638;2023-07-13T14:44:30;3.25;;;2.83;;
81320;SDS011;70785;52.570;5.638;2023-07-13T14:46:59;4.90;;;2.15;;
81320;SDS011;70785;52.570;5.638;2023-07-13T14:49:30;4.10;;;1.70;;
81320;SDS011;70785;52.570;5.638;2023-07-13T14:52:01;4.85;;;1.90;;
81320;SDS011;70785;52.570;5.638;2023-07-13T14:54:36;5.30;;;1.70;;
81320;SDS011;70785;52.570;5.638;2023-07-13T14:59:36;4.75;;;2.88;;
81320;SDS011;70785;52.570;5.638;2023-07-13T15:02:02;3.60;;;2.53;;
81320;SDS011;70785;52.570;5.638;2023-07-13T15:04:29;4.75;;;1.83;;
81320;SDS011;70785;52.570;5.638;2023-07-13T15:06:56;4.88;;;1.83;;
81320;SDS011;70785;52.570;5.638;2023-07-13T15:09:25;2.58;;;1.67;;
81320;SDS011;70785;52.570;5.638;2023-07-13T15:11:52;6.30;;;2.65;;
81320;SDS011;70785;52.570;5.638;2023-07-13T15:14:19;6.75;;;2.47;;
81320;SDS011;70785;52.570;5.638;2023-07-13T15:16:46;6.07;;;2.55;;
81320;SDS011;70785;52.570;5.638;2023-07-13T15:19:15;4.88;;;1.77;;
81320;SDS011;70785;52.570;5.638;2023-07-13T15:21:42;5.47;;;2.90;;
81320;SDS011;70785;52.570;5.638;2023-07-13T15:24:10;5.32;;;2.28;;
81320;SDS011;70785;52.570;5.638;2023-07-13T15:26:36;6.03;;;2.55;;
81320;SDS011;70785;52.570;5.638;2023-07-13T15:29:04;6.22;;;2.30;;
81320;SDS011;70785;52.570;5.638;2023-07-13T15:31:31;3.65;;;2.58;;
81320;SDS011;70785;52.570;5.638;2023-07-13T15:33:59;5.32;;;3.00;;
81320;SDS011;70785;52.570;5.638;2023-07-13T15:36:26;7.95;;;4.20;;
81320;SDS011;70785;52.570;5.638;2023-07-13T15:38:53;5.82;;;4.25;;
81320;SDS011;70785;52.570;5.638;2023-07-13T15:41:24;6.03;;;3.65;;
81320;SDS011;70785;52.570;5.638;2023-07-13T15:43:53;5.65;;;2.50;;